sensor_id;sensor_type;location;lat;lon;timestamp;P1;durP1;ratioP1;P2;durP2;ratioP2
71558;SDS011;59382;43.852;25.952;2023-05-10T00:00:08;5.88;;;5.20;;
71558;SDS011;59382;43.852;25.952;2023-05-10T00:02:34;6.28;;;4.75;;
71558;SDS011;59382;43.852;25.952;2023-05-10T00:04:59;5.68;;;4.75;;
71558;SDS011;59382;43.852;25.952;2023-05-10T00:07:25;10.93;;;5.28;;
71558;SDS011;59382;43.852;25.952;2023-05-10T00:09:51;9.82;;;4.90;;
71558;SDS011;59382;43.852;25.952;2023-05-10T00:12:16;10.95;;;5.32;;
71558;SDS011;59382;43.852;25.952;2023-05-10T00:14:42;8.50;;;5.50;;
71558;SDS011;59382;43.852;25.952;2023-05-10T00:17:07;10.95;;;5.43;;
71558;SDS011;59382;43.852;25.952;2023-05-10T00:19:33;9.98;;;5.32;;
71558;SDS011;59382;43.852;25.952;2023-05-10T00:21:58;6.55;;;4.70;;
71558;SDS011;59382;43.852;25.952;2023-05-10T00:24:24;8.50;;;4.75;;
71558;SDS011;59382;43.852;25.952;2023-05-10T00:26:50;6.93;;;5.13;;
71558;SDS011;59382;43.852;25.952;2023-05-10T00:29:15;7.63;;;4.57;;
71558;SDS011;59382;43.852;25.952;2023-05-10T00:31:41;8.80;;;4.95;;
71558;SDS011;59382;43.852;25.952;2023-05-10T00:34:06;7.10;;;4.63;;
71558;SDS011;59382;43.852;25.952;2023-05-10T00:36:32;7.03;;;5.25;;
71558;SDS011;59382;43.852;25.952;2023-05-10T00:38:57;10.50;;;5.00;;
71558;SDS011;59382;43.852;25.952;2023-05-10T00:41:23;8.18;;;4.40;;
71558;SDS011;59382;43.852;25.952;2023-05-10T00:43:48;5.88;;;4.57;;
71558;SDS011;59382;43.852;25.952;2023-05-10T00:46:14;6.00;;;5.13;;
71558;SDS011;59382;43.852;25.952;2023-05-10T00:48:41;8.32;;;5.10;;
71558;SDS011;59382;43.852;25.952;2023-05-10T00:51:07;5.53;;;4.88;;
71558;SDS011;59382;43.852;25.952;2023-05-10T00:53:33;6.82;;;4.72;;
71558;SDS011;59382;43.852;25.952;2023-05-10T00:56:00;10.43;;;5.40;;
71558;SDS011;59382;43.852;25.952;2023-05-10T00:58:27;10.57;;;4.68;;
71558;SDS011;59382;43.852;25.952;2023-05-10T01:00:54;8.10;;;4.70;;
71558;SDS011;59382;43.852;25.952;2023-05-10T01:03:22;7.25;;;5.10;;
71558;SDS011;59382;43.852;25.952;2023-05-10T01:05:47;7.55;;;4.90;;
71558;SDS011;59382;43.852;25.952;2023-05-10T01:08:13;10.25;;;5.50;;
71558;SDS011;59382;43.852;25.952;2023-05-10T01:10:38;7.50;;;4.82;;
71558;SDS011;59382;43.852;25.952;2023-05-10T01:13:04;5.80;;;5.18;;
71558;SDS011;59382;43.852;25.952;2023-05-10T01:15:29;5.88;;;4.80;;
71558;SDS011;59382;43.852;25.952;2023-05-10T01:17:56;9.63;;;5.28;;
71558;SDS011;59382;43.852;25.952;2023-05-10T01:20:21;10.57;;;5.80;;
71558;SDS011;59382;43.852;25.952;2023-05-10T01:31:37;5.93;;;4.85;;
71558;SDS011;59382;43.852;25.952;2023-05-10T01:34:25;5.70;;;4.88;;
71558;SDS011;59382;43.852;25.952;2023-05-10T01:37:04;8.73;;;4.88;;
71558;SDS011;59382;43.852;25.952;2023-05-10T01:39:50;6.78;;;5.13;;
71558;SDS011;59382;43.852;25.952;2023-05-10T01:42:47;7.45;;;4.53;;
71558;SDS011;59382;43.852;25.952;2023-05-10T01:47:44;11.35;;;5.70;;
71558;SDS011;59382;43.852;25.952;2023-05-10T01:50:17;6.10;;;5.03;;
71558;SDS011;59382;43.852;25.952;2023-05-10T01:52:47;6.50;;;5.28;;
71558;SDS011;59382;43.852;25.952;2023-05-10T01:55:18;10.07;;;5.32;;
71558;SDS011;59382;43.852;25.952;2023-05-10T01:57:46;5.80;;;4.88;;
71558;SDS011;59382;43.852;25.952;2023-05-10T02:00:16;6.85;;;5.30;;
71558;SDS011;59382;43.852;25.952;2023-05-10T02:02:45;7.13;;;5.35;;
71558;SDS011;59382;43.852;25.952;2023-05-10T02:05:13;5.47;;;4.47;;
71558;SDS011;59382;43.852;25.952;2023-05-10T02:07:40;7.72;;;5.50;;
71558;SDS011;59382;43.852;25.952;2023-05-10T02:10:07;5.57;;;4.80;;
71558;SDS011;59382;43.852;25.952;2023-05-10T02:12:44;6.63;;;4.90;;
71558;SDS011;59382;43.852;25.952;2023-05-10T02:15:12;6.28;;;5.43;;
71558;SDS011;59382;43.852;25.952;2023-05-10T02:17:48;6.05;;;5.20;;
71558;SDS011;59382;43.852;25.952;2023-05-10T02:20:14;7.60;;;4.75;;
71558;SDS011;59382;43.852;25.952;2023-05-10T02:22:41;7.63;;;4.80;;
71558;SDS011;59382;43.852;25.952;2023-05-10T02:25:09;6.47;;;4.60;;
71558;SDS011;59382;43.852;25.952;2023-05-10T02:27:38;6.15;;;4.85;;
71558;SDS011;59382;43.852;25.952;2023-05-10T02:30:06;7.03;;;4.70;;
71558;SDS011;59382;43.852;25.952;2023-05-10T02:32:32;5.13;;;4.45;;
71558;SDS011;59382;43.852;25.952;2023-05-10T02:34:59;8.25;;;5.60;;
71558;SDS011;59382;43.852;25.952;2023-05-10T02:37:28;8.90;;;5.22;;
71558;SDS011;59382;43.852;25.952;2023-05-10T02:39:54;7.65;;;5.68;;
71558;SDS011;59382;43.852;25.952;2023-05-10T02:42:25;8.93;;;6.38;;
71558;SDS011;59382;43.852;25.952;2023-05-10T02:44:53;7.90;;;5.63;;
71558;SDS011;59382;43.852;25.952;2023-05-10T02:47:24;8.30;;;5.88;;
71558;SDS011;59382;43.852;25.952;2023-05-10T02:49:50;8.20;;;6.43;;
71558;SDS011;59382;43.852;25.952;2023-05-10T02:52:16;10.13;;;6.15;;
71558;SDS011;59382;43.852;25.952;2023-05-10T02:54:50;15.55;;;6.72;;
71558;SDS011;59382;43.852;25.952;2023-05-10T02:57:28;10.30;;;6.15;;
71558;SDS011;59382;43.852;25.952;2023-05-10T02:59:57;8.07;;;5.75;;
71558;SDS011;59382;43.852;25.952;2023-05-10T03:02:23;11.68;;;6.90;;
71558;SDS011;59382;43.852;25.952;2023-05-10T03:04:49;12.55;;;6.00;;
71558;SDS011;59382;43.852;25.952;2023-05-10T03:07:14;9.93;;;5.82;;
71558;SDS011;59382;43.852;25.952;2023-05-10T03:09:40;10.77;;;5.85;;
71558;SDS011;59382;43.852;25.952;2023-05-10T03:14:59;6.65;;;5.03;;
71558;SDS011;59382;43.852;25.952;2023-05-10T03:20:29;6.40;;;4.72;;
71558;SDS011;59382;43.852;25.952;2023-05-10T03:23:02;6.07;;;5.18;;
71558;SDS011;59382;43.852;25.952;2023-05-10T03:25:36;6.38;;;5.05;;
71558;SDS011;59382;43.852;25.952;2023-05-10T03:28:03;9.05;;;5.25;;
71558;SDS011;59382;43.852;25.952;2023-05-10T03:30:30;5.75;;;4.20;;
71558;SDS011;59382;43.852;25.952;2023-05-10T03:32:56;8.57;;;5.95;;
71558;SDS011;59382;43.852;25.952;2023-05-10T03:35:22;6.55;;;4.82;;
71558;SDS011;59382;43.852;25.952;2023-05-10T03:37:48;7.38;;;5.82;;
71558;SDS011;59382;43.852;25.952;2023-05-10T03:40:14;6.10;;;5.07;;
71558;SDS011;59382;43.852;25.952;2023-05-10T03:42:40;8.20;;;5.30;;
71558;SDS011;59382;43.852;25.952;2023-05-10T03:45:06;9.68;;;5.50;;
71558;SDS011;59382;43.852;25.952;2023-05-10T03:47:32;8.30;;;5.20;;
71558;SDS011;59382;43.852;25.952;2023-05-10T03:49:57;7.20;;;5.10;;
71558;SDS011;59382;43.852;25.952;2023-05-10T03:52:23;6.95;;;4.85;;
71558;SDS011;59382;43.852;25.952;2023-05-10T03:54:48;8.88;;;5.75;;
71558;SDS011;59382;43.852;25.952;2023-05-10T03:57:14;8.18;;;6.13;;
71558;SDS011;59382;43.852;25.952;2023-05-10T03:59:39;8.68;;;5.97;;
71558;SDS011;59382;43.852;25.952;2023-05-10T04:02:05;8.13;;;5.18;;
71558;SDS011;59382;43.852;25.952;2023-05-10T04:04:30;7.45;;;5.72;;
71558;SDS011;59382;43.852;25.952;2023-05-10T04:06:56;10.82;;;5.50;;
71558;SDS011;59382;43.852;25.952;2023-05-10T04:09:22;12.82;;;5.30;;
71558;SDS011;59382;43.852;25.952;2023-05-10T04:11:47;6.10;;;5.10;;
71558;SDS011;59382;43.852;25.952;2023-05-10T04:14:12;7.35;;;5.63;;
71558;SDS011;59382;43.852;25.952;2023-05-10T04:16:38;8.25;;;5.50;;
71558;SDS011;59382;43.852;25.952;2023-05-10T04:19:03;8.10;;;5.63;;
71558;SDS011;59382;43.852;25.952;2023-05-10T04:21:29;7.75;;;5.22;;
71558;SDS011;59382;43.852;25.952;2023-05-10T04:23:55;12.85;;;6.25;;
71558;SDS011;59382;43.852;25.952;2023-05-10T04:26:21;11.52;;;6.32;;
71558;SDS011;59382;43.852;25.952;2023-05-10T04:28:47;7.05;;;5.25;;
71558;SDS011;59382;43.852;25.952;2023-05-10T04:31:12;8.25;;;6.05;;
71558;SDS011;59382;43.852;25.952;2023-05-10T04:33:38;11.55;;;5.55;;
71558;SDS011;59382;43.852;25.952;2023-05-10T04:36:04;8.13;;;6.03;;
71558;SDS011;59382;43.852;25.952;2023-05-10T04:38:31;7.45;;;5.93;;
71558;SDS011;59382;43.852;25.952;2023-05-10T04:41:03;11.35;;;6.30;;
71558;SDS011;59382;43.852;25.952;2023-05-10T04:43:30;8.13;;;6.45;;
71558;SDS011;59382;43.852;25.952;2023-05-10T04:45:58;12.52;;;7.00;;
71558;SDS011;59382;43.852;25.952;2023-05-10T04:48:24;16.08;;;6.65;;
71558;SDS011;59382;43.852;25.952;2023-05-10T04:50:49;9.57;;;7.07;;
71558;SDS011;59382;43.852;25.952;2023-05-10T04:53:15;10.55;;;6.68;;
71558;SDS011;59382;43.852;25.952;2023-05-10T04:55:41;11.55;;;6.55;;
71558;SDS011;59382;43.852;25.952;2023-05-10T04:58:06;13.57;;;7.13;;
71558;SDS011;59382;43.852;25.952;2023-05-10T05:00:32;15.57;;;8.85;;
71558;SDS011;59382;43.852;25.952;2023-05-10T05:02:58;17.52;;;9.00;;
71558;SDS011;59382;43.852;25.952;2023-05-10T05:05:23;17.92;;;9.35;;
71558;SDS011;59382;43.852;25.952;2023-05-10T05:07:49;26.60;;;10.40;;
71558;SDS011;59382;43.852;25.952;2023-05-10T05:10:14;15.23;;;8.80;;
71558;SDS011;59382;43.852;25.952;2023-05-10T05:12:40;17.73;;;10.73;;
71558;SDS011;59382;43.852;25.952;2023-05-10T05:15:06;16.13;;;10.00;;
71558;SDS011;59382;43.852;25.952;2023-05-10T05:17:33;16.48;;;10.20;;
71558;SDS011;59382;43.852;25.952;2023-05-10T05:19:58;14.55;;;9.23;;
71558;SDS011;59382;43.852;25.952;2023-05-10T05:22:24;16.25;;;9.90;;
71558;SDS011;59382;43.852;25.952;2023-05-10T05:24:53;14.38;;;9.73;;
71558;SDS011;59382;43.852;25.952;2023-05-10T05:27:19;13.75;;;9.35;;
71558;SDS011;59382;43.852;25.952;2023-05-10T05:29:47;13.48;;;9.10;;
71558;SDS011;59382;43.852;25.952;2023-05-10T05:32:13;16.65;;;10.23;;
71558;SDS011;59382;43.852;25.952;2023-05-10T05:34:38;21.08;;;9.80;;
71558;SDS011;59382;43.852;25.952;2023-05-10T05:37:04;17.02;;;9.30;;
71558;SDS011;59382;43.852;25.952;2023-05-10T05:39:29;13.93;;;7.78;;
71558;SDS011;59382;43.852;25.952;2023-05-10T05:41:55;16.85;;;9.35;;
71558;SDS011;59382;43.852;25.952;2023-05-10T05:44:20;18.98;;;9.95;;
71558;SDS011;59382;43.852;25.952;2023-05-10T05:46:45;13.95;;;9.52;;
71558;SDS011;59382;43.852;25.952;2023-05-10T05:49:11;15.93;;;9.50;;
71558;SDS011;59382;43.852;25.952;2023-05-10T05:51:37;16.02;;;9.15;;
71558;SDS011;59382;43.852;25.952;2023-05-10T05:54:02;14.32;;;8.02;;
71558;SDS011;59382;43.852;25.952;2023-05-10T05:56:29;13.25;;;8.18;;
71558;SDS011;59382;43.852;25.952;2023-05-10T05:58:55;13.45;;;9.05;;
71558;SDS011;59382;43.852;25.952;2023-05-10T06:01:20;18.27;;;10.07;;
71558;SDS011;59382;43.852;25.952;2023-05-10T06:03:46;21.83;;;10.32;;
71558;SDS011;59382;43.852;25.952;2023-05-10T06:06:11;16.48;;;10.23;;
71558;SDS011;59382;43.852;25.952;2023-05-10T06:08:37;19.25;;;9.93;;
71558;SDS011;59382;43.852;25.952;2023-05-10T06:11:03;13.70;;;9.38;;
71558;SDS011;59382;43.852;25.952;2023-05-10T06:13:29;12.57;;;8.20;;
71558;SDS011;59382;43.852;25.952;2023-05-10T06:15:57;10.93;;;7.90;;
71558;SDS011;59382;43.852;25.952;2023-05-10T06:18:23;18.42;;;9.10;;
71558;SDS011;59382;43.852;25.952;2023-05-10T06:20:49;14.18;;;9.15;;
71558;SDS011;59382;43.852;25.952;2023-05-10T06:23:15;16.17;;;9.45;;
71558;SDS011;59382;43.852;25.952;2023-05-10T06:25:41;19.95;;;9.73;;
71558;SDS011;59382;43.852;25.952;2023-05-10T06:28:06;19.95;;;9.05;;
71558;SDS011;59382;43.852;25.952;2023-05-10T06:30:32;16.20;;;9.15;;
71558;SDS011;59382;43.852;25.952;2023-05-10T06:32:58;18.38;;;9.70;;
71558;SDS011;59382;43.852;25.952;2023-05-10T06:35:23;12.45;;;8.13;;
71558;SDS011;59382;43.852;25.952;2023-05-10T06:37:49;13.60;;;8.18;;
71558;SDS011;59382;43.852;25.952;2023-05-10T06:40:16;10.32;;;7.55;;
71558;SDS011;59382;43.852;25.952;2023-05-10T06:42:41;10.88;;;7.45;;
71558;SDS011;59382;43.852;25.952;2023-05-10T06:45:07;10.02;;;7.75;;
71558;SDS011;59382;43.852;25.952;2023-05-10T06:47:33;15.05;;;8.35;;
71558;SDS011;59382;43.852;25.952;2023-05-10T06:49:59;14.25;;;7.72;;
71558;SDS011;59382;43.852;25.952;2023-05-10T06:52:24;13.68;;;8.30;;
71558;SDS011;59382;43.852;25.952;2023-05-10T06:54:50;13.80;;;8.88;;
71558;SDS011;59382;43.852;25.952;2023-05-10T06:57:15;18.85;;;7.05;;
71558;SDS011;59382;43.852;25.952;2023-05-10T06:59:41;15.90;;;7.85;;
71558;SDS011;59382;43.852;25.952;2023-05-10T07:02:06;18.17;;;10.00;;
71558;SDS011;59382;43.852;25.952;2023-05-10T07:04:32;19.83;;;12.98;;
71558;SDS011;59382;43.852;25.952;2023-05-10T07:06:58;16.60;;;9.85;;
71558;SDS011;59382;43.852;25.952;2023-05-10T07:09:23;7.68;;;6.38;;
71558;SDS011;59382;43.852;25.952;2023-05-10T07:11:49;14.90;;;8.70;;
71558;SDS011;59382;43.852;25.952;2023-05-10T07:14:15;23.67;;;13.45;;
71558;SDS011;59382;43.852;25.952;2023-05-10T07:16:40;13.18;;;8.07;;
71558;SDS011;59382;43.852;25.952;2023-05-10T07:19:06;11.40;;;7.00;;
71558;SDS011;59382;43.852;25.952;2023-05-10T07:21:32;11.82;;;6.40;;
71558;SDS011;59382;43.852;25.952;2023-05-10T07:23:57;9.77;;;6.57;;
71558;SDS011;59382;43.852;25.952;2023-05-10T07:26:23;11.63;;;6.65;;
71558;SDS011;59382;43.852;25.952;2023-05-10T07:28:49;10.32;;;5.95;;
71558;SDS011;59382;43.852;25.952;2023-05-10T07:31:15;16.20;;;6.60;;
71558;SDS011;59382;43.852;25.952;2023-05-10T07:33:40;7.35;;;5.80;;
71558;SDS011;59382;43.852;25.952;2023-05-10T07:36:06;9.13;;;5.28;;
71558;SDS011;59382;43.852;25.952;2023-05-10T07:38:31;11.65;;;5.55;;
71558;SDS011;59382;43.852;25.952;2023-05-10T07:40:57;8.95;;;6.10;;
71558;SDS011;59382;43.852;25.952;2023-05-10T07:43:22;10.70;;;6.55;;
71558;SDS011;59382;43.852;25.952;2023-05-10T07:45:48;10.75;;;5.90;;
71558;SDS011;59382;43.852;25.952;2023-05-10T07:48:14;11.75;;;5.75;;
71558;SDS011;59382;43.852;25.952;2023-05-10T07:50:40;9.90;;;6.07;;
71558;SDS011;59382;43.852;25.952;2023-05-10T07:53:05;8.30;;;5.68;;
71558;SDS011;59382;43.852;25.952;2023-05-10T07:55:31;6.07;;;5.10;;
71558;SDS011;59382;43.852;25.952;2023-05-10T07:57:57;7.30;;;5.68;;
71558;SDS011;59382;43.852;25.952;2023-05-10T08:00:22;11.48;;;5.70;;
71558;SDS011;59382;43.852;25.952;2023-05-10T08:02:48;7.85;;;4.97;;
71558;SDS011;59382;43.852;25.952;2023-05-10T08:05:13;9.98;;;5.55;;
71558;SDS011;59382;43.852;25.952;2023-05-10T08:07:40;5.38;;;4.88;;
71558;SDS011;59382;43.852;25.952;2023-05-10T08:10:05;4.45;;;3.67;;
71558;SDS011;59382;43.852;25.952;2023-05-10T08:12:31;4.45;;;3.58;;
71558;SDS011;59382;43.852;25.952;2023-05-10T08:14:57;13.85;;;8.00;;
71558;SDS011;59382;43.852;25.952;2023-05-10T08:17:22;14.07;;;8.48;;
71558;SDS011;59382;43.852;25.952;2023-05-10T08:19:48;5.90;;;4.43;;
71558;SDS011;59382;43.852;25.952;2023-05-10T08:22:13;4.88;;;4.20;;
71558;SDS011;59382;43.852;25.952;2023-05-10T08:24:39;5.35;;;4.15;;
71558;SDS011;59382;43.852;25.952;2023-05-10T08:27:07;5.30;;;4.00;;
71558;SDS011;59382;43.852;25.952;2023-05-10T08:29:33;5.68;;;3.88;;
71558;SDS011;59382;43.852;25.952;2023-05-10T08:31:59;13.73;;;4.13;;
71558;SDS011;59382;43.852;25.952;2023-05-10T08:34:26;10.20;;;2.83;;
71558;SDS011;59382;43.852;25.952;2023-05-10T08:36:52;5.28;;;3.00;;
71558;SDS011;59382;43.852;25.952;2023-05-10T08:39:18;6.80;;;3.30;;
71558;SDS011;59382;43.852;25.952;2023-05-10T08:41:43;6.75;;;3.05;;
71558;SDS011;59382;43.852;25.952;2023-05-10T08:44:10;6.25;;;2.78;;
71558;SDS011;59382;43.852;25.952;2023-05-10T08:46:36;2.88;;;2.00;;
71558;SDS011;59382;43.852;25.952;2023-05-10T08:49:05;5.68;;;2.00;;
71558;SDS011;59382;43.852;25.952;2023-05-10T08:51:33;5.13;;;1.67;;
71558;SDS011;59382;43.852;25.952;2023-05-10T08:54:05;2.28;;;1.70;;
71558;SDS011;59382;43.852;25.952;2023-05-10T08:56:31;1.70;;;1.60;;
71558;SDS011;59382;43.852;25.952;2023-05-10T08:58:57;4.93;;;1.55;;
71558;SDS011;59382;43.852;25.952;2023-05-10T09:01:23;6.88;;;1.88;;
71558;SDS011;59382;43.852;25.952;2023-05-10T09:03:49;7.90;;;2.03;;
71558;SDS011;59382;43.852;25.952;2023-05-10T09:06:15;3.13;;;1.60;;
71558;SDS011;59382;43.852;25.952;2023-05-10T09:08:41;1.80;;;1.40;;
71558;SDS011;59382;43.852;25.952;2023-05-10T09:11:08;1.33;;;1.23;;
71558;SDS011;59382;43.852;25.952;2023-05-10T09:13:35;2.22;;;1.50;;
71558;SDS011;59382;43.852;25.952;2023-05-10T09:16:02;4.13;;;1.40;;
71558;SDS011;59382;43.852;25.952;2023-05-10T09:18:28;4.85;;;1.38;;
71558;SDS011;59382;43.852;25.952;2023-05-10T09:20:54;2.17;;;1.27;;
71558;SDS011;59382;43.852;25.952;2023-05-10T09:23:20;9.50;;;2.40;;
71558;SDS011;59382;43.852;25.952;2023-05-10T09:25:46;4.35;;;1.48;;
71558;SDS011;59382;43.852;25.952;2023-05-10T09:28:11;8.70;;;1.33;;
71558;SDS011;59382;43.852;25.952;2023-05-10T09:30:37;2.33;;;1.40;;
71558;SDS011;59382;43.852;25.952;2023-05-10T09:33:03;2.58;;;1.67;;
71558;SDS011;59382;43.852;25.952;2023-05-10T09:35:30;2.60;;;1.80;;
71558;SDS011;59382;43.852;25.952;2023-05-10T09:38:03;2.20;;;1.48;;
71558;SDS011;59382;43.852;25.952;2023-05-10T09:40:30;1.75;;;1.45;;
71558;SDS011;59382;43.852;25.952;2023-05-10T09:43:03;1.67;;;1.55;;
71558;SDS011;59382;43.852;25.952;2023-05-10T09:45:32;2.83;;;1.90;;
71558;SDS011;59382;43.852;25.952;2023-05-10T09:48:00;15.90;;;2.28;;
71558;SDS011;59382;43.852;25.952;2023-05-10T09:50:28;8.50;;;2.05;;
71558;SDS011;59382;43.852;25.952;2023-05-10T09:52:56;1.77;;;1.40;;
71558;SDS011;59382;43.852;25.952;2023-05-10T09:55:26;2.55;;;1.80;;
71558;SDS011;59382;43.852;25.952;2023-05-10T09:58:15;3.45;;;1.80;;
71558;SDS011;59382;43.852;25.952;2023-05-10T10:00:44;5.03;;;1.60;;
71558;SDS011;59382;43.852;25.952;2023-05-10T10:03:17;5.03;;;1.67;;
71558;SDS011;59382;43.852;25.952;2023-05-10T10:05:44;2.30;;;1.88;;
71558;SDS011;59382;43.852;25.952;2023-05-10T10:08:11;2.00;;;1.90;;
71558;SDS011;59382;43.852;25.952;2023-05-10T10:10:37;2.58;;;2.03;;
71558;SDS011;59382;43.852;25.952;2023-05-10T10:13:06;4.72;;;2.90;;
71558;SDS011;59382;43.852;25.952;2023-05-10T10:15:33;31.90;;;6.88;;
71558;SDS011;59382;43.852;25.952;2023-05-10T10:17:59;15.70;;;3.40;;
71558;SDS011;59382;43.852;25.952;2023-05-10T10:20:25;10.20;;;4.70;;
71558;SDS011;59382;43.852;25.952;2023-05-10T10:22:52;57.55;;;9.93;;
71558;SDS011;59382;43.852;25.952;2023-05-10T10:25:20;8.07;;;3.47;;
71558;SDS011;59382;43.852;25.952;2023-05-10T10:35:55;20.20;;;7.55;;
71558;SDS011;59382;43.852;25.952;2023-05-10T10:38:37;19.63;;;4.85;;
71558;SDS011;59382;43.852;25.952;2023-05-10T10:41:37;16.95;;;7.05;;
71558;SDS011;59382;43.852;25.952;2023-05-10T10:44:25;30.77;;;11.45;;
71558;SDS011;59382;43.852;25.952;2023-05-10T10:47:05;5.18;;;3.33;;
71558;SDS011;59382;43.852;25.952;2023-05-10T10:52:13;111.15;;;19.02;;
71558;SDS011;59382;43.852;25.952;2023-05-10T10:54:39;24.48;;;4.97;;
71558;SDS011;59382;43.852;25.952;2023-05-10T10:57:14;10.98;;;5.20;;
71558;SDS011;59382;43.852;25.952;2023-05-10T10:59:43;4.28;;;2.97;;
71558;SDS011;59382;43.852;25.952;2023-05-10T11:07:58;3.40;;;2.60;;
71558;SDS011;59382;43.852;25.952;2023-05-10T11:10:25;8.77;;;3.08;;
71558;SDS011;59382;43.852;25.952;2023-05-10T11:13:08;2.50;;;1.33;;
71558;SDS011;59382;43.852;25.952;2023-05-10T11:15:38;6.63;;;2.25;;
71558;SDS011;59382;43.852;25.952;2023-05-10T11:18:18;1.58;;;1.48;;
71558;SDS011;59382;43.852;25.952;2023-05-10T11:20:49;1.73;;;1.27;;
71558;SDS011;59382;43.852;25.952;2023-05-10T11:23:16;3.80;;;1.60;;
71558;SDS011;59382;43.852;25.952;2023-05-10T11:25:43;2.90;;;1.20;;
71558;SDS011;59382;43.852;25.952;2023-05-10T11:28:10;5.18;;;1.30;;
71558;SDS011;59382;43.852;25.952;2023-05-10T11:30:40;1.35;;;1.25;;
71558;SDS011;59382;43.852;25.952;2023-05-10T11:33:07;2.53;;;1.02;;
71558;SDS011;59382;43.852;25.952;2023-05-10T11:35:37;8.05;;;1.45;;
71558;SDS011;59382;43.852;25.952;2023-05-10T11:38:10;5.93;;;1.70;;
71558;SDS011;59382;43.852;25.952;2023-05-10T11:40:37;4.60;;;1.25;;
71558;SDS011;59382;43.852;25.952;2023-05-10T11:43:03;3.65;;;2.03;;
71558;SDS011;59382;43.852;25.952;2023-05-10T11:45:33;5.22;;;1.20;;
71558;SDS011;59382;43.852;25.952;2023-05-10T11:48:00;5.00;;;1.60;;
71558;SDS011;59382;43.852;25.952;2023-05-10T11:50:26;4.15;;;1.10;;
71558;SDS011;59382;43.852;25.952;2023-05-10T11:52:53;2.70;;;1.10;;
71558;SDS011;59382;43.852;25.952;2023-05-10T11:55:20;1.40;;;1.17;;
71558;SDS011;59382;43.852;25.952;2023-05-10T11:57:46;4.32;;;1.30;;
71558;SDS011;59382;43.852;25.952;2023-05-10T12:00:12;1.35;;;1.25;;
71558;SDS011;59382;43.852;25.952;2023-05-10T12:02:38;1.30;;;1.10;;
71558;SDS011;59382;43.852;25.952;2023-05-10T12:05:04;1.98;;;1.27;;
71558;SDS011;59382;43.852;25.952;2023-05-10T12:07:31;1.58;;;1.48;;
71558;SDS011;59382;43.852;25.952;2023-05-10T12:10:06;11.40;;;3.25;;
71558;SDS011;59382;43.852;25.952;2023-05-10T12:12:40;3.28;;;2.00;;
71558;SDS011;59382;43.852;25.952;2023-05-10T12:15:10;3.90;;;2.88;;
71558;SDS011;59382;43.852;25.952;2023-05-10T12:17:43;1.65;;;1.50;;
71558;SDS011;59382;43.852;25.952;2023-05-10T12:20:13;3.63;;;1.98;;
71558;SDS011;59382;43.852;25.952;2023-05-10T12:22:49;4.18;;;1.92;;
71558;SDS011;59382;43.852;25.952;2023-05-10T12:25:20;4.07;;;2.10;;
71558;SDS011;59382;43.852;25.952;2023-05-10T12:27:48;2.10;;;1.70;;
71558;SDS011;59382;43.852;25.952;2023-05-10T12:30:21;2.72;;;1.70;;
71558;SDS011;59382;43.852;25.952;2023-05-10T12:32:48;5.85;;;2.28;;
71558;SDS011;59382;43.852;25.952;2023-05-10T12:35:14;1.50;;;1.40;;
71558;SDS011;59382;43.852;25.952;2023-05-10T12:37:40;3.38;;;1.15;;
71558;SDS011;59382;43.852;25.952;2023-05-10T12:40:09;1.63;;;1.52;;
71558;SDS011;59382;43.852;25.952;2023-05-10T12:42:36;5.18;;;1.58;;
71558;SDS011;59382;43.852;25.952;2023-05-10T12:45:04;4.72;;;2.05;;
71558;SDS011;59382;43.852;25.952;2023-05-10T12:47:30;3.78;;;2.03;;
71558;SDS011;59382;43.852;25.952;2023-05-10T12:49:57;3.88;;;1.30;;
71558;SDS011;59382;43.852;25.952;2023-05-10T12:52:22;3.95;;;2.03;;
71558;SDS011;59382;43.852;25.952;2023-05-10T12:54:48;7.43;;;2.88;;
71558;SDS011;59382;43.852;25.952;2023-05-10T12:57:14;6.03;;;2.35;;
71558;SDS011;59382;43.852;25.952;2023-05-10T12:59:40;3.42;;;1.30;;
71558;SDS011;59382;43.852;25.952;2023-05-10T13:02:06;2.13;;;1.20;;
71558;SDS011;59382;43.852;25.952;2023-05-10T13:04:32;1.15;;;1.10;;
71558;SDS011;59382;43.852;25.952;2023-05-10T13:06:57;3.58;;;1.70;;
71558;SDS011;59382;43.852;25.952;2023-05-10T13:09:27;2.13;;;1.10;;
71558;SDS011;59382;43.852;25.952;2023-05-10T13:11:55;4.47;;;1.20;;
71558;SDS011;59382;43.852;25.952;2023-05-10T13:14:20;1.13;;;1.02;;
71558;SDS011;59382;43.852;25.952;2023-05-10T13:16:46;3.08;;;1.48;;
71558;SDS011;59382;43.852;25.952;2023-05-10T13:19:13;1.58;;;1.20;;
71558;SDS011;59382;43.852;25.952;2023-05-10T13:21:38;1.35;;;1.23;;
71558;SDS011;59382;43.852;25.952;2023-05-10T13:24:06;1.75;;;1.15;;
71558;SDS011;59382;43.852;25.952;2023-05-10T13:26:32;3.80;;;1.10;;
71558;SDS011;59382;43.852;25.952;2023-05-10T13:28:57;5.20;;;1.30;;
71558;SDS011;59382;43.852;25.952;2023-05-10T13:31:23;3.13;;;1.35;;
71558;SDS011;59382;43.852;25.952;2023-05-10T13:33:48;3.22;;;1.15;;
71558;SDS011;59382;43.852;25.952;2023-05-10T13:36:14;1.42;;;1.25;;
71558;SDS011;59382;43.852;25.952;2023-05-10T13:38:40;4.40;;;1.40;;
71558;SDS011;59382;43.852;25.952;2023-05-10T13:41:05;1.50;;;1.40;;
71558;SDS011;59382;43.852;25.952;2023-05-10T13:43:31;2.83;;;1.20;;
71558;SDS011;59382;43.852;25.952;2023-05-10T13:45:56;1.65;;;1.30;;
71558;SDS011;59382;43.852;25.952;2023-05-10T13:48:22;1.38;;;1.27;;
71558;SDS011;59382;43.852;25.952;2023-05-10T13:50:47;1.85;;;1.25;;
71558;SDS011;59382;43.852;25.952;2023-05-10T13:53:13;4.22;;;1.38;;
71558;SDS011;59382;43.852;25.952;2023-05-10T13:55:39;2.63;;;1.48;;
71558;SDS011;59382;43.852;25.952;2023-05-10T13:58:05;10.15;;;1.42;;
71558;SDS011;59382;43.852;25.952;2023-05-10T14:00:30;6.15;;;1.40;;
71558;SDS011;59382;43.852;25.952;2023-05-10T14:02:56;2.20;;;1.27;;
71558;SDS011;59382;43.852;25.952;2023-05-10T14:05:21;6.05;;;1.40;;
71558;SDS011;59382;43.852;25.952;2023-05-10T14:07:48;2.35;;;1.85;;
71558;SDS011;59382;43.852;25.952;2023-05-10T14:10:15;2.65;;;1.40;;
71558;SDS011;59382;43.852;25.952;2023-05-10T14:12:40;8.68;;;1.63;;
71558;SDS011;59382;43.852;25.952;2023-05-10T14:15:06;1.88;;;1.40;;
71558;SDS011;59382;43.852;25.952;2023-05-10T14:17:32;4.90;;;1.27;;
71558;SDS011;59382;43.852;25.952;2023-05-10T14:19:58;5.05;;;2.35;;
71558;SDS011;59382;43.852;25.952;2023-05-10T14:22:23;6.05;;;1.40;;
71558;SDS011;59382;43.852;25.952;2023-05-10T14:24:49;3.55;;;1.52;;
71558;SDS011;59382;43.852;25.952;2023-05-10T14:27:15;2.08;;;1.58;;
71558;SDS011;59382;43.852;25.952;2023-05-10T14:29:41;2.88;;;1.40;;
71558;SDS011;59382;43.852;25.952;2023-05-10T14:32:06;2.38;;;1.90;;
71558;SDS011;59382;43.852;25.952;2023-05-10T14:34:32;2.63;;;1.52;;
71558;SDS011;59382;43.852;25.952;2023-05-10T14:36:58;2.80;;;1.50;;
71558;SDS011;59382;43.852;25.952;2023-05-10T14:39:23;5.93;;;1.35;;
71558;SDS011;59382;43.852;25.952;2023-05-10T14:41:49;2.83;;;1.40;;
71558;SDS011;59382;43.852;25.952;2023-05-10T14:44:16;5.35;;;1.48;;
71558;SDS011;59382;43.852;25.952;2023-05-10T14:46:42;3.67;;;1.30;;
71558;SDS011;59382;43.852;25.952;2023-05-10T14:49:07;2.65;;;1.40;;
71558;SDS011;59382;43.852;25.952;2023-05-10T14:51:33;1.67;;;1.40;;
71558;SDS011;59382;43.852;25.952;2023-05-10T14:53:58;2.55;;;1.40;;
71558;SDS011;59382;43.852;25.952;2023-05-10T14:56:24;2.10;;;1.50;;
71558;SDS011;59382;43.852;25.952;2023-05-10T14:58:51;2.90;;;1.42;;
71558;SDS011;59382;43.852;25.952;2023-05-10T15:01:16;3.35;;;1.20;;
71558;SDS011;59382;43.852;25.952;2023-05-10T15:03:42;1.70;;;1.20;;